sensor_id;sensor_type;location;lat;lon;timestamp;P1;durP1;ratioP1;P2;durP2;ratioP2
78410;SDS011;67706;51.074;-1.796;2023-03-26T00:01:58;6.40;;;2.03;;
78410;SDS011;67706;51.074;-1.796;2023-03-26T00:04:24;15.23;;;2.22;;
78410;SDS011;67706;51.074;-1.796;2023-03-26T00:06:52;11.32;;;1.77;;
78410;SDS011;67706;51.074;-1.796;2023-03-26T00:09:18;13.05;;;2.03;;
78410;SDS011;67706;51.074;-1.796;2023-03-26T00:11:45;8.73;;;1.75;;
78410;SDS011;67706;51.074;-1.796;2023-03-26T00:14:13;8.48;;;1.70;;
78410;SDS011;67706;51.074;-1.796;2023-03-26T00:16:42;8.30;;;2.25;;
78410;SDS011;67706;51.074;-1.796;2023-03-26T00:19:11;8.95;;;1.77;;
78410;SDS011;67706;51.074;-1.796;2023-03-26T00:21:38;8.63;;;1.85;;
78410;SDS011;67706;51.074;-1.796;2023-03-26T00:24:07;6.72;;;1.35;;
78410;SDS011;67706;51.074;-1.796;2023-03-26T00:26:36;6.35;;;1.20;;
78410;SDS011;67706;51.074;-1.796;2023-03-26T00:29:05;4.90;;;1.40;;
78410;SDS011;67706;51.074;-1.796;2023-03-26T00:31:33;8.60;;;1.35;;
78410;SDS011;67706;51.074;-1.796;2023-03-26T00:34:02;4.20;;;1.42;;
78410;SDS011;67706;51.074;-1.796;2023-03-26T00:36:29;9.00;;;1.70;;
78410;SDS011;67706;51.074;-1.796;2023-03-26T00:39:00;5.03;;;0.93;;
78410;SDS011;67706;51.074;-1.796;2023-03-26T00:41:29;6.07;;;1.38;;
78410;SDS011;67706;51.074;-1.796;2023-03-26T00:43:57;4.07;;;0.90;;
78410;SDS011;67706;51.074;-1.796;2023-03-26T00:46:26;2.97;;;0.90;;
78410;SDS011;67706;51.074;-1.796;2023-03-26T00:48:55;3.00;;;1.10;;
78410;SDS011;67706;51.074;-1.796;2023-03-26T00:51:22;4.82;;;1.35;;
78410;SDS011;67706;51.074;-1.796;2023-03-26T00:53:50;2.22;;;0.70;;
78410;SDS011;67706;51.074;-1.796;2023-03-26T00:56:17;3.67;;;1.05;;
78410;SDS011;67706;51.074;-1.796;2023-03-26T00:58:44;2.47;;;0.70;;
78410;SDS011;67706;51.074;-1.796;2023-03-26T01:01:14;3.92;;;0.90;;
78410;SDS011;67706;51.074;-1.796;2023-03-26T01:03:43;2.78;;;0.50;;
78410;SDS011;67706;51.074;-1.796;2023-03-26T01:06:13;5.20;;;0.70;;
78410;SDS011;67706;51.074;-1.796;2023-03-26T01:08:52;1.63;;;0.50;;
78410;SDS011;67706;51.074;-1.796;2023-03-26T01:11:25;2.55;;;0.65;;
78410;SDS011;67706;51.074;-1.796;2023-03-26T01:13:55;4.13;;;0.60;;
78410;SDS011;67706;51.074;-1.796;2023-03-26T01:16:24;2.30;;;0.60;;
78410;SDS011;67706;51.074;-1.796;2023-03-26T01:18:53;2.22;;;0.60;;
78410;SDS011;67706;51.074;-1.796;2023-03-26T01:21:24;2.42;;;0.93;;
78410;SDS011;67706;51.074;-1.796;2023-03-26T01:23:56;0.43;;;0.30;;
78410;SDS011;67706;51.074;-1.796;2023-03-26T01:26:38;2.08;;;0.47;;
78410;SDS011;67706;51.074;-1.796;2023-03-26T01:29:28;2.42;;;0.57;;
78410;SDS011;67706;51.074;-1.796;2023-03-26T01:32:03;2.05;;;0.52;;
78410;SDS011;67706;51.074;-1.796;2023-03-26T01:34:41;1.77;;;0.50;;
78410;SDS011;67706;51.074;-1.796;2023-03-26T01:37:19;2.03;;;0.60;;
78410;SDS011;67706;51.074;-1.796;2023-03-26T01:39:54;1.38;;;0.20;;
78410;SDS011;67706;51.074;-1.796;2023-03-26T01:42:32;1.10;;;0.30;;
78410;SDS011;67706;51.074;-1.796;2023-03-26T01:45:04;0.63;;;0.20;;
78410;SDS011;67706;51.074;-1.796;2023-03-26T01:47:35;1.52;;;0.17;;
78410;SDS011;67706;51.074;-1.796;2023-03-26T01:50:05;1.75;;;0.20;;
78410;SDS011;67706;51.074;-1.796;2023-03-26T01:52:33;1.02;;;0.17;;
78410;SDS011;67706;51.074;-1.796;2023-03-26T01:55:01;1.90;;;0.40;;
78410;SDS011;67706;51.074;-1.796;2023-03-26T01:57:33;0.80;;;0.17;;
78410;SDS011;67706;51.074;-1.796;2023-03-26T02:00:13;0.80;;;0.10;;
78410;SDS011;67706;51.074;-1.796;2023-03-26T02:05:43;0.93;;;0.13;;
78410;SDS011;67706;51.074;-1.796;2023-03-26T02:08:16;0.47;;;0.28;;
78410;SDS011;67706;51.074;-1.796;2023-03-26T02:10:49;0.47;;;0.13;;
78410;SDS011;67706;51.074;-1.796;2023-03-26T02:13:18;0.40;;;0.08;;
78410;SDS011;67706;51.074;-1.796;2023-03-26T02:15:55;0.95;;;0.10;;
78410;SDS011;67706;51.074;-1.796;2023-03-26T02:18:23;0.00;;;0.00;;
78410;SDS011;67706;51.074;-1.796;2023-03-26T02:20:49;1.25;;;0.10;;
78410;SDS011;67706;51.074;-1.796;2023-03-26T02:23:18;2.00;;;0.10;;
78410;SDS011;67706;51.074;-1.796;2023-03-26T02:25:45;1.02;;;0.10;;
78410;SDS011;67706;51.074;-1.796;2023-03-26T02:28:13;0.00;;;0.00;;
78410;SDS011;67706;51.074;-1.796;2023-03-26T02:30:41;1.70;;;0.10;;
78410;SDS011;67706;51.074;-1.796;2023-03-26T02:33:09;0.17;;;0.10;;
78410;SDS011;67706;51.074;-1.796;2023-03-26T02:35:39;0.10;;;0.03;;
78410;SDS011;67706;51.074;-1.796;2023-03-26T02:38:09;0.10;;;0.10;;
78410;SDS011;67706;51.074;-1.796;2023-03-26T02:40:38;0.00;;;0.00;;
78410;SDS011;67706;51.074;-1.796;2023-03-26T02:43:05;0.75;;;0.10;;
78410;SDS011;67706;51.074;-1.796;2023-03-26T02:45:33;0.73;;;0.00;;
78410;SDS011;67706;51.074;-1.796;2023-03-26T02:48:00;1.23;;;0.10;;
78410;SDS011;67706;51.074;-1.796;2023-03-26T02:50:26;0.10;;;0.00;;
78410;SDS011;67706;51.074;-1.796;2023-03-26T02:52:57;0.70;;;0.20;;
78410;SDS011;67706;51.074;-1.796;2023-03-26T02:55:23;1.63;;;0.20;;
78410;SDS011;67706;51.074;-1.796;2023-03-26T02:57:51;0.82;;;0.10;;
78410;SDS011;67706;51.074;-1.796;2023-03-26T03:00:18;0.00;;;0.00;;
78410;SDS011;67706;51.074;-1.796;2023-03-26T03:02:48;0.47;;;0.10;;
78410;SDS011;67706;51.074;-1.796;2023-03-26T03:05:16;0.40;;;0.10;;
78410;SDS011;67706;51.074;-1.796;2023-03-26T03:07:43;0.17;;;0.13;;
78410;SDS011;67706;51.074;-1.796;2023-03-26T03:10:10;0.30;;;0.13;;
78410;SDS011;67706;51.074;-1.796;2023-03-26T03:12:39;0.77;;;0.00;;
78410;SDS011;67706;51.074;-1.796;2023-03-26T03:15:07;0.55;;;0.10;;
78410;SDS011;67706;51.074;-1.796;2023-03-26T03:17:34;2.60;;;0.03;;
78410;SDS011;67706;51.074;-1.796;2023-03-26T03:20:03;0.08;;;0.00;;
78410;SDS011;67706;51.074;-1.796;2023-03-26T03:22:33;0.00;;;0.00;;
78410;SDS011;67706;51.074;-1.796;2023-03-26T03:25:00;0.30;;;0.10;;
78410;SDS011;67706;51.074;-1.796;2023-03-26T03:27:27;0.43;;;0.00;;
78410;SDS011;67706;51.074;-1.796;2023-03-26T03:29:54;0.10;;;0.10;;
78410;SDS011;67706;51.074;-1.796;2023-03-26T03:32:21;0.50;;;0.10;;
78410;SDS011;67706;51.074;-1.796;2023-03-26T03:34:47;1.45;;;0.10;;
78410;SDS011;67706;51.074;-1.796;2023-03-26T03:37:16;0.30;;;0.10;;
78410;SDS011;67706;51.074;-1.796;2023-03-26T03:39:43;0.17;;;0.00;;
78410;SDS011;67706;51.074;-1.796;2023-03-26T03:42:10;0.10;;;0.05;;
78410;SDS011;67706;51.074;-1.796;2023-03-26T03:44:37;0.05;;;0.00;;
78410;SDS011;67706;51.074;-1.796;2023-03-26T03:47:04;0.65;;;0.17;;
78410;SDS011;67706;51.074;-1.796;2023-03-26T03:49:31;0.00;;;0.00;;
78410;SDS011;67706;51.074;-1.796;2023-03-26T03:51:57;0.00;;;0.00;;
78410;SDS011;67706;51.074;-1.796;2023-03-26T03:54:27;0.95;;;0.10;;
78410;SDS011;67706;51.074;-1.796;2023-03-26T03:56:53;0.55;;;0.10;;
78410;SDS011;67706;51.074;-1.796;2023-03-26T03:59:20;1.80;;;0.13;;
78410;SDS011;67706;51.074;-1.796;2023-03-26T04:01:47;0.43;;;0.20;;
78410;SDS011;67706;51.074;-1.796;2023-03-26T04:04:14;0.20;;;0.10;;
78410;SDS011;67706;51.074;-1.796;2023-03-26T04:06:41;1.75;;;0.10;;
78410;SDS011;67706;51.074;-1.796;2023-03-26T04:09:08;0.85;;;0.10;;
78410;SDS011;67706;51.074;-1.796;2023-03-26T04:11:36;0.10;;;0.10;;
78410;SDS011;67706;51.074;-1.796;2023-03-26T04:14:03;0.15;;;0.08;;
78410;SDS011;67706;51.074;-1.796;2023-03-26T04:16:30;0.20;;;0.10;;
78410;SDS011;67706;51.074;-1.796;2023-03-26T04:18:56;0.57;;;0.10;;
78410;SDS011;67706;51.074;-1.796;2023-03-26T04:21:26;0.10;;;0.10;;
78410;SDS011;67706;51.074;-1.796;2023-03-26T04:23:54;0.32;;;0.10;;
78410;SDS011;67706;51.074;-1.796;2023-03-26T04:26:21;0.10;;;0.03;;
78410;SDS011;67706;51.074;-1.796;2023-03-26T04:28:50;0.05;;;0.00;;
78410;SDS011;67706;51.074;-1.796;2023-03-26T04:31:20;0.03;;;0.00;;
78410;SDS011;67706;51.074;-1.796;2023-03-26T04:33:53;1.50;;;0.08;;
78410;SDS011;67706;51.074;-1.796;2023-03-26T04:36:26;0.00;;;0.00;;
78410;SDS011;67706;51.074;-1.796;2023-03-26T04:38:56;1.55;;;0.13;;
78410;SDS011;67706;51.074;-1.796;2023-03-26T04:41:26;0.28;;;0.00;;
78410;SDS011;67706;51.074;-1.796;2023-03-26T04:43:54;0.43;;;0.10;;
78410;SDS011;67706;51.074;-1.796;2023-03-26T04:46:21;0.05;;;0.00;;
78410;SDS011;67706;51.074;-1.796;2023-03-26T04:48:48;0.13;;;0.08;;
78410;SDS011;67706;51.074;-1.796;2023-03-26T04:51:15;0.13;;;0.08;;
78410;SDS011;67706;51.074;-1.796;2023-03-26T04:53:44;0.45;;;0.10;;
78410;SDS011;67706;51.074;-1.796;2023-03-26T04:56:19;0.00;;;0.00;;
78410;SDS011;67706;51.074;-1.796;2023-03-26T04:58:57;0.32;;;0.10;;
78410;SDS011;67706;51.074;-1.796;2023-03-26T05:01:26;0.10;;;0.10;;
78410;SDS011;67706;51.074;-1.796;2023-03-26T05:03:54;0.00;;;0.00;;
78410;SDS011;67706;51.074;-1.796;2023-03-26T05:06:22;0.43;;;0.10;;
78410;SDS011;67706;51.074;-1.796;2023-03-26T05:08:52;0.28;;;0.10;;
78410;SDS011;67706;51.074;-1.796;2023-03-26T05:11:18;0.00;;;0.00;;
78410;SDS011;67706;51.074;-1.796;2023-03-26T05:13:45;1.27;;;0.20;;
78410;SDS011;67706;51.074;-1.796;2023-03-26T05:16:13;0.65;;;0.20;;
78410;SDS011;67706;51.074;-1.796;2023-03-26T05:18:40;1.67;;;0.30;;
78410;SDS011;67706;51.074;-1.796;2023-03-26T05:21:07;0.65;;;0.30;;
78410;SDS011;67706;51.074;-1.796;2023-03-26T05:23:33;0.57;;;0.20;;
78410;SDS011;67706;51.074;-1.796;2023-03-26T05:26:00;1.27;;;0.30;;
78410;SDS011;67706;51.074;-1.796;2023-03-26T05:28:26;1.17;;;0.40;;
78410;SDS011;67706;51.074;-1.796;2023-03-26T05:30:53;0.30;;;0.20;;
78410;SDS011;67706;51.074;-1.796;2023-03-26T05:33:21;1.00;;;0.20;;
78410;SDS011;67706;51.074;-1.796;2023-03-26T05:35:57;0.40;;;0.20;;
78410;SDS011;67706;51.074;-1.796;2023-03-26T05:38:25;0.30;;;0.20;;
78410;SDS011;67706;51.074;-1.796;2023-03-26T05:40:55;1.50;;;0.35;;
78410;SDS011;67706;51.074;-1.796;2023-03-26T05:43:23;3.05;;;0.30;;
78410;SDS011;67706;51.074;-1.796;2023-03-26T05:45:49;1.35;;;0.20;;
78410;SDS011;67706;51.074;-1.796;2023-03-26T05:48:16;0.22;;;0.13;;
78410;SDS011;67706;51.074;-1.796;2023-03-26T05:50:47;0.60;;;0.03;;
78410;SDS011;67706;51.074;-1.796;2023-03-26T05:53:14;0.32;;;0.00;;
78410;SDS011;67706;51.074;-1.796;2023-03-26T05:55:42;1.00;;;0.28;;
78410;SDS011;67706;51.074;-1.796;2023-03-26T05:58:10;0.10;;;0.10;;
78410;SDS011;67706;51.074;-1.796;2023-03-26T06:00:37;0.25;;;0.10;;
78410;SDS011;67706;51.074;-1.796;2023-03-26T06:03:04;0.20;;;0.10;;
78410;SDS011;67706;51.074;-1.796;2023-03-26T06:05:36;0.25;;;0.10;;
78410;SDS011;67706;51.074;-1.796;2023-03-26T06:08:06;0.90;;;0.20;;
78410;SDS011;67706;51.074;-1.796;2023-03-26T06:10:32;1.23;;;0.15;;
78410;SDS011;67706;51.074;-1.796;2023-03-26T06:13:02;0.45;;;0.22;;
78410;SDS011;67706;51.074;-1.796;2023-03-26T06:15:29;0.30;;;0.13;;
78410;SDS011;67706;51.074;-1.796;2023-03-26T06:17:56;0.20;;;0.17;;
78410;SDS011;67706;51.074;-1.796;2023-03-26T06:20:23;1.65;;;0.70;;
78410;SDS011;67706;51.074;-1.796;2023-03-26T06:22:50;1.10;;;0.10;;
78410;SDS011;67706;51.074;-1.796;2023-03-26T06:25:18;0.57;;;0.10;;
78410;SDS011;67706;51.074;-1.796;2023-03-26T06:27:45;0.40;;;0.10;;
78410;SDS011;67706;51.074;-1.796;2023-03-26T06:30:12;0.20;;;0.15;;
78410;SDS011;67706;51.074;-1.796;2023-03-26T06:32:39;1.05;;;0.10;;
78410;SDS011;67706;51.074;-1.796;2023-03-26T06:35:06;0.47;;;0.25;;
78410;SDS011;67706;51.074;-1.796;2023-03-26T06:37:33;0.63;;;0.52;;
78410;SDS011;67706;51.074;-1.796;2023-03-26T06:40:00;0.40;;;0.20;;
78410;SDS011;67706;51.074;-1.796;2023-03-26T06:42:28;0.45;;;0.30;;
78410;SDS011;67706;51.074;-1.796;2023-03-26T06:44:55;0.10;;;0.10;;
78410;SDS011;67706;51.074;-1.796;2023-03-26T06:47:22;0.47;;;0.30;;
78410;SDS011;67706;51.074;-1.796;2023-03-26T06:49:49;2.28;;;0.40;;
78410;SDS011;67706;51.074;-1.796;2023-03-26T06:52:16;0.25;;;0.10;;
78410;SDS011;67706;51.074;-1.796;2023-03-26T06:54:42;0.00;;;0.00;;
78410;SDS011;67706;51.074;-1.796;2023-03-26T06:57:09;2.00;;;0.10;;
78410;SDS011;67706;51.074;-1.796;2023-03-26T06:59:37;0.32;;;0.10;;
78410;SDS011;67706;51.074;-1.796;2023-03-26T07:02:04;0.88;;;0.20;;
78410;SDS011;67706;51.074;-1.796;2023-03-26T07:04:31;0.35;;;0.00;;
78410;SDS011;67706;51.074;-1.796;2023-03-26T07:06:57;0.30;;;0.08;;
78410;SDS011;67706;51.074;-1.796;2023-03-26T07:09:25;1.65;;;0.10;;
78410;SDS011;67706;51.074;-1.796;2023-03-26T07:11:54;0.35;;;0.10;;
78410;SDS011;67706;51.074;-1.796;2023-03-26T07:14:21;1.08;;;0.20;;
78410;SDS011;67706;51.074;-1.796;2023-03-26T07:16:49;0.20;;;0.20;;
78410;SDS011;67706;51.074;-1.796;2023-03-26T07:19:16;0.30;;;0.17;;
78410;SDS011;67706;51.074;-1.796;2023-03-26T07:21:43;1.08;;;0.20;;
78410;SDS011;67706;51.074;-1.796;2023-03-26T07:24:11;0.20;;;0.10;;
78410;SDS011;67706;51.074;-1.796;2023-03-26T07:26:41;0.20;;;0.20;;
78410;SDS011;67706;51.074;-1.796;2023-03-26T07:29:19;0.73;;;0.30;;
78410;SDS011;67706;51.074;-1.796;2023-03-26T07:31:59;0.50;;;0.35;;
78410;SDS011;67706;51.074;-1.796;2023-03-26T07:34:36;1.30;;;0.20;;
78410;SDS011;67706;51.074;-1.796;2023-03-26T07:37:13;0.10;;;0.10;;
78410;SDS011;67706;51.074;-1.796;2023-03-26T07:39:49;0.82;;;0.30;;
78410;SDS011;67706;51.074;-1.796;2023-03-26T07:42:28;0.20;;;0.10;;
78410;SDS011;67706;51.074;-1.796;2023-03-26T07:45:09;0.68;;;0.40;;
78410;SDS011;67706;51.074;-1.796;2023-03-26T07:47:46;0.45;;;0.17;;
78410;SDS011;67706;51.074;-1.796;2023-03-26T07:50:18;0.38;;;0.20;;
78410;SDS011;67706;51.074;-1.796;2023-03-26T07:52:47;0.68;;;0.20;;
78410;SDS011;67706;51.074;-1.796;2023-03-26T07:55:15;1.98;;;0.40;;
78410;SDS011;67706;51.074;-1.796;2023-03-26T07:57:44;0.57;;;0.22;;
78410;SDS011;67706;51.074;-1.796;2023-03-26T08:00:19;0.20;;;0.10;;
78410;SDS011;67706;51.074;-1.796;2023-03-26T08:03:05;0.82;;;0.25;;
78410;SDS011;67706;51.074;-1.796;2023-03-26T08:05:41;5.03;;;1.70;;
78410;SDS011;67706;51.074;-1.796;2023-03-26T08:08:13;0.93;;;0.30;;
78410;SDS011;67706;51.074;-1.796;2023-03-26T08:10:48;0.43;;;0.17;;
78410;SDS011;67706;51.074;-1.796;2023-03-26T08:13:24;0.17;;;0.17;;
78410;SDS011;67706;51.074;-1.796;2023-03-26T08:16:02;0.10;;;0.00;;
78410;SDS011;67706;51.074;-1.796;2023-03-26T08:18:39;0.17;;;0.10;;
78410;SDS011;67706;51.074;-1.796;2023-03-26T08:21:14;0.10;;;0.10;;
78410;SDS011;67706;51.074;-1.796;2023-03-26T08:23:48;0.10;;;0.10;;
78410;SDS011;67706;51.074;-1.796;2023-03-26T08:26:24;0.75;;;0.30;;
78410;SDS011;67706;51.074;-1.796;2023-03-26T08:29:00;0.00;;;0.00;;
78410;SDS011;67706;51.074;-1.796;2023-03-26T08:31:33;0.63;;;0.00;;
78410;SDS011;67706;51.074;-1.796;2023-03-26T08:34:04;0.38;;;0.10;;
78410;SDS011;67706;51.074;-1.796;2023-03-26T08:36:31;0.40;;;0.20;;
78410;SDS011;67706;51.074;-1.796;2023-03-26T08:38:58;0.13;;;0.13;;
78410;SDS011;67706;51.074;-1.796;2023-03-26T08:44:44;1.23;;;0.30;;
78410;SDS011;67706;51.074;-1.796;2023-03-26T08:50:48;0.95;;;0.40;;
78410;SDS011;67706;51.074;-1.796;2023-03-26T08:53:42;3.70;;;0.80;;
78410;SDS011;67706;51.074;-1.796;2023-03-26T08:56:22;0.55;;;0.30;;
78410;SDS011;67706;51.074;-1.796;2023-03-26T08:59:12;1.55;;;0.30;;
78410;SDS011;67706;51.074;-1.796;2023-03-26T09:17:58;0.70;;;0.50;;
78410;SDS011;67706;51.074;-1.796;2023-03-26T09:20:47;0.15;;;0.10;;
78410;SDS011;67706;51.074;-1.796;2023-03-26T09:26:30;0.25;;;0.20;;
78410;SDS011;67706;51.074;-1.796;2023-03-26T09:29:19;0.45;;;0.20;;
78410;SDS011;67706;51.074;-1.796;2023-03-26T09:41:12;0.63;;;0.30;;
78410;SDS011;67706;51.074;-1.796;2023-03-26T09:43:53;0.10;;;0.10;;
78410;SDS011;67706;51.074;-1.796;2023-03-26T09:46:38;0.55;;;0.30;;
78410;SDS011;67706;51.074;-1.796;2023-03-26T09:49:15;1.00;;;0.20;;
78410;SDS011;67706;51.074;-1.796;2023-03-26T09:51:59;0.88;;;0.15;;
78410;SDS011;67706;51.074;-1.796;2023-03-26T09:54:42;0.40;;;0.10;;
78410;SDS011;67706;51.074;-1.796;2023-03-26T09:57:22;0.60;;;0.32;;
78410;SDS011;67706;51.074;-1.796;2023-03-26T10:00:21;0.10;;;0.00;;
78410;SDS011;67706;51.074;-1.796;2023-03-26T10:02:58;0.30;;;0.08;;
78410;SDS011;67706;51.074;-1.796;2023-03-26T10:08:38;0.20;;;0.10;;
78410;SDS011;67706;51.074;-1.796;2023-03-26T10:11:17;1.17;;;0.10;;
78410;SDS011;67706;51.074;-1.796;2023-03-26T10:13:54;0.20;;;0.10;;
78410;SDS011;67706;51.074;-1.796;2023-03-26T10:16:31;0.10;;;0.00;;
78410;SDS011;67706;51.074;-1.796;2023-03-26T10:19:13;0.30;;;0.22;;
78410;SDS011;67706;51.074;-1.796;2023-03-26T10:21:52;0.10;;;0.10;;
78410;SDS011;67706;51.074;-1.796;2023-03-26T10:24:39;0.20;;;0.10;;
78410;SDS011;67706;51.074;-1.796;2023-03-26T10:27:20;0.28;;;0.17;;
78410;SDS011;67706;51.074;-1.796;2023-03-26T10:30:02;0.22;;;0.10;;
78410;SDS011;67706;51.074;-1.796;2023-03-26T10:32:45;1.85;;;0.30;;
78410;SDS011;67706;51.074;-1.796;2023-03-26T10:35:21;0.47;;;0.20;;
78410;SDS011;67706;51.074;-1.796;2023-03-26T10:38:00;0.45;;;0.20;;
78410;SDS011;67706;51.074;-1.796;2023-03-26T10:40:40;0.25;;;0.10;;
78410;SDS011;67706;51.074;-1.796;2023-03-26T10:43:19;0.90;;;0.25;;
78410;SDS011;67706;51.074;-1.796;2023-03-26T10:46:02;2.00;;;0.20;;
78410;SDS011;67706;51.074;-1.796;2023-03-26T10:48:59;0.30;;;0.25;;
78410;SDS011;67706;51.074;-1.796;2023-03-26T10:51:46;0.85;;;0.20;;
78410;SDS011;67706;51.074;-1.796;2023-03-26T10:54:19;0.20;;;0.10;;
78410;SDS011;67706;51.074;-1.796;2023-03-26T10:56:52;1.35;;;0.30;;
78410;SDS011;67706;51.074;-1.796;2023-03-26T10:59:20;0.82;;;0.52;;
78410;SDS011;67706;51.074;-1.796;2023-03-26T11:01:49;0.28;;;0.25;;
78410;SDS011;67706;51.074;-1.796;2023-03-26T11:04:32;0.50;;;0.30;;
78410;SDS011;67706;51.074;-1.796;2023-03-26T11:07:10;0.50;;;0.30;;
78410;SDS011;67706;51.074;-1.796;2023-03-26T11:09:45;0.35;;;0.22;;
78410;SDS011;67706;51.074;-1.796;2023-03-26T11:12:20;0.20;;;0.20;;
78410;SDS011;67706;51.074;-1.796;2023-03-26T11:14:57;0.15;;;0.10;;
78410;SDS011;67706;51.074;-1.796;2023-03-26T11:17:33;0.40;;;0.40;;
78410;SDS011;67706;51.074;-1.796;2023-03-26T11:20:11;0.30;;;0.30;;
78410;SDS011;67706;51.074;-1.796;2023-03-26T11:22:45;0.35;;;0.17;;
78410;SDS011;67706;51.074;-1.796;2023-03-26T11:25:25;0.65;;;0.20;;
78410;SDS011;67706;51.074;-1.796;2023-03-26T11:28:03;0.20;;;0.10;;
78410;SDS011;67706;51.074;-1.796;2023-03-26T11:30:39;0.93;;;0.30;;
78410;SDS011;67706;51.074;-1.796;2023-03-26T11:33:12;0.22;;;0.20;;
78410;SDS011;67706;51.074;-1.796;2023-03-26T11:35:45;1.50;;;0.40;;
78410;SDS011;67706;51.074;-1.796;2023-03-26T11:38:15;0.15;;;0.15;;
78410;SDS011;67706;51.074;-1.796;2023-03-26T11:40:48;0.40;;;0.30;;
78410;SDS011;67706;51.074;-1.796;2023-03-26T11:43:19;0.73;;;0.30;;
78410;SDS011;67706;51.074;-1.796;2023-03-26T11:45:50;1.00;;;0.40;;
78410;SDS011;67706;51.074;-1.796;2023-03-26T11:48:18;0.65;;;0.30;;
78410;SDS011;67706;51.074;-1.796;2023-03-26T11:50:55;0.22;;;0.10;;
78410;SDS011;67706;51.074;-1.796;2023-03-26T11:53:27;0.30;;;0.13;;
78410;SDS011;67706;51.074;-1.796;2023-03-26T11:55:59;0.10;;;0.10;;
78410;SDS011;67706;51.074;-1.796;2023-03-26T11:58:30;2.08;;;0.50;;
78410;SDS011;67706;51.074;-1.796;2023-03-26T12:01:03;0.63;;;0.38;;
78410;SDS011;67706;51.074;-1.796;2023-03-26T12:03:30;0.40;;;0.20;;
78410;SDS011;67706;51.074;-1.796;2023-03-26T12:05:59;0.10;;;0.10;;
78410;SDS011;67706;51.074;-1.796;2023-03-26T12:08:29;0.10;;;0.10;;
78410;SDS011;67706;51.074;-1.796;2023-03-26T12:11:03;0.15;;;0.10;;
78410;SDS011;67706;51.074;-1.796;2023-03-26T12:13:36;0.65;;;0.10;;
78410;SDS011;67706;51.074;-1.796;2023-03-26T12:16:08;0.25;;;0.25;;
78410;SDS011;67706;51.074;-1.796;2023-03-26T12:18:38;0.73;;;0.30;;
78410;SDS011;67706;51.074;-1.796;2023-03-26T12:21:08;0.10;;;0.10;;
78410;SDS011;67706;51.074;-1.796;2023-03-26T12:23:39;0.43;;;0.43;;
78410;SDS011;67706;51.074;-1.796;2023-03-26T12:26:11;0.50;;;0.30;;
78410;SDS011;67706;51.074;-1.796;2023-03-26T12:28:44;1.20;;;0.50;;
78410;SDS011;67706;51.074;-1.796;2023-03-26T12:31:13;1.40;;;0.50;;
78410;SDS011;67706;51.074;-1.796;2023-03-26T12:33:43;1.52;;;0.65;;
78410;SDS011;67706;51.074;-1.796;2023-03-26T12:36:19;1.27;;;0.30;;
78410;SDS011;67706;51.074;-1.796;2023-03-26T12:38:49;0.38;;;0.20;;
78410;SDS011;67706;51.074;-1.796;2023-03-26T12:41:16;0.98;;;0.50;;
78410;SDS011;67706;51.074;-1.796;2023-03-26T12:43:45;0.45;;;0.30;;
78410;SDS011;67706;51.074;-1.796;2023-03-26T12:46:21;0.40;;;0.30;;
78410;SDS011;67706;51.074;-1.796;2023-03-26T12:48:51;0.90;;;0.40;;
78410;SDS011;67706;51.074;-1.796;2023-03-26T12:51:30;0.98;;;0.55;;
78410;SDS011;67706;51.074;-1.796;2023-03-26T12:56:58;2.25;;;0.70;;
78410;SDS011;67706;51.074;-1.796;2023-03-26T12:59:43;0.60;;;0.40;;
78410;SDS011;67706;51.074;-1.796;2023-03-26T13:02:43;1.00;;;0.60;;
78410;SDS011;67706;51.074;-1.796;2023-03-26T13:05:35;0.93;;;0.40;;
78410;SDS011;67706;51.074;-1.796;2023-03-26T13:08:18;1.60;;;0.70;;
78410;SDS011;67706;51.074;-1.796;2023-03-26T13:11:00;1.00;;;0.57;;
78410;SDS011;67706;51.074;-1.796;2023-03-26T13:13:49;4.93;;;1.08;;
78410;SDS011;67706;51.074;-1.796;2023-03-26T13:16:30;2.00;;;1.30;;
78410;SDS011;67706;51.074;-1.796;2023-03-26T13:19:03;4.85;;;1.63;;
78410;SDS011;67706;51.074;-1.796;2023-03-26T13:21:37;1.08;;;0.60;;
78410;SDS011;67706;51.074;-1.796;2023-03-26T13:24:20;1.77;;;0.82;;
78410;SDS011;67706;51.074;-1.796;2023-03-26T13:26:59;1.40;;;0.65;;
78410;SDS011;67706;51.074;-1.796;2023-03-26T13:29:40;1.73;;;0.85;;
78410;SDS011;67706;51.074;-1.796;2023-03-26T13:32:15;1.20;;;0.70;;
78410;SDS011;67706;51.074;-1.796;2023-03-26T13:34:52;0.70;;;0.50;;
78410;SDS011;67706;51.074;-1.796;2023-03-26T13:37:31;1.20;;;0.60;;
78410;SDS011;67706;51.074;-1.796;2023-03-26T13:40:14;0.73;;;0.70;;
78410;SDS011;67706;51.074;-1.796;2023-03-26T13:42:51;0.93;;;0.60;;
78410;SDS011;67706;51.074;-1.796;2023-03-26T13:45:41;0.50;;;0.45;;
78410;SDS011;67706;51.074;-1.796;2023-03-26T13:48:20;1.25;;;0.65;;
78410;SDS011;67706;51.074;-1.796;2023-03-26T13:50:54;1.17;;;0.80;;
78410;SDS011;67706;51.074;-1.796;2023-03-26T13:53:26;1.27;;;0.50;;
78410;SDS011;67706;51.074;-1.796;2023-03-26T13:56:00;2.95;;;0.82;;
78410;SDS011;67706;51.074;-1.796;2023-03-26T13:58:30;0.50;;;0.50;;
78410;SDS011;67706;51.074;-1.796;2023-03-26T14:01:02;1.48;;;0.55;;
78410;SDS011;67706;51.074;-1.796;2023-03-26T14:03:35;2.35;;;0.93;;
78410;SDS011;67706;51.074;-1.796;2023-03-26T14:06:11;2.25;;;0.70;;
78410;SDS011;67706;51.074;-1.796;2023-03-26T14:08:43;3.90;;;0.80;;
78410;SDS011;67706;51.074;-1.796;2023-03-26T14:11:14;2.75;;;0.90;;
78410;SDS011;67706;51.074;-1.796;2023-03-26T14:13:46;1.52;;;0.75;;
78410;SDS011;67706;51.074;-1.796;2023-03-26T14:16:21;2.15;;;0.90;;
78410;SDS011;67706;51.074;-1.796;2023-03-26T14:18:53;2.15;;;0.70;;
78410;SDS011;67706;51.074;-1.796;2023-03-26T14:21:37;0.70;;;0.50;;
78410;SDS011;67706;51.074;-1.796;2023-03-26T14:27:17;0.70;;;0.40;;
78410;SDS011;67706;51.074;-1.796;2023-03-26T14:29:58;1.00;;;0.50;;
78410;SDS011;67706;51.074;-1.796;2023-03-26T14:32:54;1.88;;;0.52;;
78410;SDS011;67706;51.074;-1.796;2023-03-26T14:35:32;1.40;;;0.50;;
78410;SDS011;67706;51.074;-1.796;2023-03-26T14:41:18;2.60;;;0.60;;
78410;SDS011;67706;51.074;-1.796;2023-03-26T14:44:09;2.72;;;1.00;;
78410;SDS011;67706;51.074;-1.796;2023-03-26T14:46:49;1.45;;;0.85;;
78410;SDS011;67706;51.074;-1.796;2023-03-26T14:49:31;2.45;;;0.68;;
78410;SDS011;67706;51.074;-1.796;2023-03-26T14:52:19;4.20;;;0.90;;
78410;SDS011;67706;51.074;-1.796;2023-03-26T14:54:56;4.38;;;0.98;;
78410;SDS011;67706;51.074;-1.796;2023-03-26T14:57:48;1.08;;;0.70;;
78410;SDS011;67706;51.074;-1.796;2023-03-26T15:00:29;2.92;;;1.13;;
78410;SDS011;67706;51.074;-1.796;2023-03-26T15:12:40;3.80;;;1.23;;
78410;SDS011;67706;51.074;-1.796;2023-03-26T15:15:37;3.78;;;1.13;;
78410;SDS011;67706;51.074;-1.796;2023-03-26T15:21:36;2.60;;;1.35;;
78410;SDS011;67706;51.074;-1.796;2023-03-26T15:24:36;1.83;;;1.00;;
78410;SDS011;67706;51.074;-1.796;2023-03-26T15:27:55;3.72;;;1.50;;
78410;SDS011;67706;51.074;-1.796;2023-03-26T15:40:13;5.35;;;2.38;;
78410;SDS011;67706;51.074;-1.796;2023-03-26T15:42:52;3.72;;;2.08;;
78410;SDS011;67706;51.074;-1.796;2023-03-26T15:45:33;5.80;;;2.33;;
78410;SDS011;67706;51.074;-1.796;2023-03-26T15:50:45;5.32;;;2.22;;
78410;SDS011;67706;51.074;-1.796;2023-03-26T15:53:26;6.07;;;2.58;;
78410;SDS011;67706;51.074;-1.796;2023-03-26T15:56:11;7.93;;;2.83;;
78410;SDS011;67706;51.074;-1.796;2023-03-26T15:58:53;7.32;;;2.78;;
78410;SDS011;67706;51.074;-1.796;2023-03-26T16:01:28;5.82;;;2.03;;
78410;SDS011;67706;51.074;-1.796;2023-03-26T16:04:16;6.28;;;1.80;;
78410;SDS011;67706;51.074;-1.796;2023-03-26T16:06:56;4.60;;;2.10;;
78410;SDS011;67706;51.074;-1.796;2023-03-26T16:09:32;4.63;;;1.42;;
78410;SDS011;67706;51.074;-1.796;2023-03-26T16:12:28;6.93;;;2.05;;
78410;SDS011;67706;51.074;-1.796;2023-03-26T16:20:51;16.10;;;2.33;;
78410;SDS011;67706;51.074;-1.796;2023-03-26T16:23:23;8.52;;;1.98;;
78410;SDS011;67706;51.074;-1.796;2023-03-26T16:25:55;2.17;;;1.10;;
78410;SDS011;67706;51.074;-1.796;2023-03-26T16:28:34;7.75;;;1.23;;
78410;SDS011;67706;51.074;-1.796;2023-03-26T16:34:17;2.35;;;0.70;;